createdAt,value
2018-04-10T00:01:08.679Z,10.14
2018-04-10T00:03:37.731Z,10.17
2018-04-10T00:06:06.780Z,10.11
2018-04-10T00:08:35.824Z,9.94
2018-04-10T00:11:05.919Z,9.81
2018-04-10T00:13:34.953Z,9.77
2018-04-10T00:16:04.990Z,9.72
2018-04-10T00:21:12.307Z,9.42
2018-04-10T00:23:41.847Z,9.32
2018-04-10T00:26:10.924Z,9.00
2018-04-10T00:31:15.643Z,8.75
2018-04-10T00:33:45.652Z,8.79
2018-04-10T00:36:14.698Z,8.60
2018-04-10T00:38:43.748Z,8.58
2018-04-10T00:41:12.833Z,8.61
2018-04-10T00:43:41.870Z,8.57
2018-04-10T00:46:11.855Z,8.55
2018-04-10T00:48:40.892Z,8.63
2018-04-10T00:51:10.030Z,8.77
2018-04-10T00:53:39.252Z,8.73
2018-04-10T00:56:08.277Z,8.87
2018-04-10T00:58:37.339Z,8.74
2018-04-10T01:01:06.395Z,8.65
2018-04-10T01:03:36.371Z,8.75
2018-04-10T01:06:05.400Z,8.62
2018-04-10T01:08:34.574Z,8.51
2018-04-10T01:11:03.586Z,8.55
2018-04-10T01:13:33.599Z,8.90
2018-04-10T01:16:02.709Z,9.01
2018-04-10T01:18:31.752Z,8.99
2018-04-10T01:21:00.793Z,8.85
2018-04-10T01:23:29.835Z,8.78
2018-04-10T01:28:34.581Z,8.87
2018-04-10T01:31:03.621Z,9.10
2018-04-10T01:33:32.656Z,9.06
2018-04-10T01:36:01.709Z,8.95
2018-04-10T01:38:30.753Z,8.89
2018-04-10T01:40:59.949Z,8.83
2018-04-10T01:43:29.017Z,8.80
2018-04-10T01:45:58.057Z,8.76
2018-04-10T01:48:27.268Z,8.81
2018-04-10T01:50:56.309Z,8.90
2018-04-10T01:56:01.101Z,9.06
2018-04-10T01:58:30.136Z,9.22
2018-04-10T02:01:01.125Z,9.14
2018-04-10T02:03:37.818Z,9.08
2018-04-10T02:08:42.925Z,9.04
2018-04-10T02:11:11.970Z,9.02
2018-04-10T02:13:41.152Z,8.98
2018-04-10T02:16:10.176Z,8.76
2018-04-10T02:18:39.217Z,8.78
2018-04-10T02:21:08.266Z,8.54
2018-04-10T02:23:37.477Z,8.53
2018-04-10T02:26:06.518Z,8.37
2018-04-10T02:28:35.582Z,8.29
2018-04-10T02:31:04.616Z,8.22
2018-04-10T02:33:33.662Z,8.29
2018-04-10T02:36:03.721Z,8.36
2018-04-10T02:38:33.695Z,8.52
2018-04-10T02:41:02.741Z,8.56
2018-04-10T02:43:31.801Z,8.49
2018-04-10T02:46:00.868Z,8.43
2018-04-10T02:48:29.918Z,8.43
2018-04-10T02:50:58.992Z,8.44
2018-04-10T02:53:28.057Z,8.66
2018-04-10T02:58:33.065Z,8.67
2018-04-10T03:01:02.119Z,8.77
2018-04-10T03:03:31.144Z,8.66
2018-04-10T03:06:00.189Z,8.63
2018-04-10T03:08:29.249Z,8.61
2018-04-10T03:10:58.283Z,8.63
2018-04-10T03:13:27.320Z,8.64
2018-04-10T03:15:56.370Z,8.66
2018-04-10T03:18:26.325Z,8.81
2018-04-10T03:23:31.125Z,8.91
2018-04-10T03:26:00.354Z,9.00
2018-04-10T03:28:29.411Z,8.94
2018-04-10T03:30:59.782Z,8.89
2018-04-10T03:33:28.828Z,9.02
2018-04-10T03:35:57.908Z,9.01
2018-04-10T03:38:27.074Z,8.95
2018-04-10T03:40:56.100Z,9.05
2018-04-10T03:46:00.898Z,8.95
2018-04-10T03:48:40.706Z,9.03
2018-04-10T03:51:09.743Z,8.99
2018-04-10T03:53:38.850Z,9.04
2018-04-10T03:56:07.875Z,9.09
2018-04-10T03:58:37.113Z,9.14
2018-04-10T04:01:06.164Z,9.09
2018-04-10T04:03:35.237Z,9.07
2018-04-10T04:06:04.359Z,9.01
2018-04-10T04:08:33.540Z,8.94
2018-04-10T04:11:02.616Z,8.90
2018-04-10T04:13:31.826Z,8.85
2018-04-10T04:16:00.858Z,8.90
2018-04-10T04:18:48.054Z,8.90
2018-04-10T04:24:09.999Z,8.86
2018-04-10T04:26:39.984Z,8.86
2018-04-10T04:29:10.561Z,8.77
2018-04-10T04:31:39.626Z,8.84
2018-04-10T04:34:08.665Z,8.81
2018-04-10T04:36:37.943Z,8.79
2018-04-10T04:39:06.958Z,8.70
2018-04-10T04:44:11.702Z,8.83
2018-04-10T04:46:40.736Z,8.76
2018-04-10T04:49:10.006Z,8.75
2018-04-10T04:54:14.994Z,8.90
2018-04-10T04:56:44.043Z,8.98
2018-04-10T04:59:13.085Z,9.08
2018-04-10T05:01:42.756Z,9.05
2018-04-10T05:04:11.793Z,9.07
2018-04-10T05:06:41.129Z,9.06
2018-04-10T05:09:10.356Z,9.05
2018-04-10T05:11:39.385Z,9.09
2018-04-10T05:16:44.118Z,9.34
2018-04-10T05:21:48.492Z,9.75
2018-04-10T05:24:17.861Z,9.78
2018-04-10T05:26:46.912Z,10.05
2018-04-10T05:29:16.445Z,10.18
2018-04-10T05:34:21.223Z,10.35
2018-04-10T05:36:50.368Z,10.42
2018-04-10T05:39:19.402Z,10.39
2018-04-10T05:41:49.116Z,10.59
2018-04-10T05:44:18.166Z,10.53
2018-04-10T05:46:47.214Z,10.64
2018-04-10T05:49:16.593Z,10.69
2018-04-10T05:51:45.620Z,10.77
2018-04-10T05:54:21.570Z,10.91
2018-04-10T05:56:50.605Z,11.04
2018-04-10T05:59:19.755Z,11.20
2018-04-10T06:01:48.800Z,11.30
2018-04-10T06:04:17.854Z,11.56
2018-04-10T06:06:46.908Z,11.61
2018-04-10T06:09:16.216Z,11.70
2018-04-10T06:11:45.397Z,11.80
2018-04-10T06:16:50.178Z,12.28
2018-04-10T06:21:55.070Z,12.80
2018-04-10T06:24:24.178Z,12.77
2018-04-10T06:29:29.364Z,13.07
2018-04-10T06:31:58.438Z,13.28
2018-04-10T06:34:28.008Z,13.51
2018-04-10T06:39:33.041Z,14.09
2018-04-10T06:42:02.509Z,14.28
2018-04-10T06:44:31.564Z,14.49
2018-04-10T06:47:00.618Z,14.63
2018-04-10T06:49:30.514Z,14.66
2018-04-10T06:51:59.570Z,14.88
2018-04-10T06:54:29.142Z,15.17
2018-04-10T06:59:34.143Z,15.69
2018-04-10T07:02:03.302Z,15.87
2018-04-10T07:04:32.806Z,16.02
2018-04-10T07:07:01.968Z,16.15
2018-04-10T07:09:31.032Z,16.14
2018-04-10T07:12:00.594Z,15.99
2018-04-10T07:14:29.714Z,15.79
2018-04-10T07:19:35.518Z,15.35
2018-04-10T07:22:04.584Z,15.81
2018-04-10T07:27:09.377Z,15.60
2018-04-10T07:29:38.687Z,15.96
2018-04-10T07:32:07.852Z,16.42
2018-04-10T07:34:36.942Z,16.43
2018-04-10T07:39:52.086Z,16.28
2018-04-10T07:42:21.332Z,16.54
2018-04-10T07:44:50.374Z,16.34
2018-04-10T07:47:20.092Z,16.39
2018-04-10T07:49:49.155Z,16.45
2018-04-10T07:52:18.716Z,16.52
2018-04-10T07:54:47.763Z,16.63
2018-04-10T07:57:16.820Z,16.55
2018-04-10T07:59:46.346Z,16.25
2018-04-10T08:02:15.374Z,16.34
2018-04-10T08:04:44.442Z,16.87
2018-04-10T08:07:13.505Z,17.20
2018-04-10T08:09:42.992Z,17.07
2018-04-10T08:12:12.025Z,17.36
2018-04-10T08:14:41.984Z,17.60
2018-04-10T08:17:11.037Z,17.63
2018-04-10T08:19:40.137Z,17.97
2018-04-10T08:22:09.350Z,18.30
2018-04-10T08:24:38.408Z,18.67
2018-04-10T08:27:08.110Z,18.84
2018-04-10T08:29:37.166Z,18.94
2018-04-10T08:32:06.949Z,18.81
2018-04-10T08:34:36.003Z,18.88
2018-04-10T08:37:05.062Z,19.26
2018-04-10T08:39:34.452Z,19.68
2018-04-10T08:42:03.493Z,19.87
2018-04-10T08:47:09.633Z,19.23
2018-04-10T08:49:38.705Z,18.99
2018-04-10T08:52:08.357Z,18.89
2018-04-10T08:54:37.426Z,18.82
2018-04-10T09:02:18.956Z,19.03
2018-04-10T09:04:48.001Z,19.27
2018-04-10T09:07:17.555Z,18.78
2018-04-10T09:09:46.598Z,19.13
2018-04-10T09:12:17.154Z,18.68
2018-04-10T09:14:46.229Z,18.80
2018-04-10T09:17:17.343Z,19.05
2018-04-10T09:19:46.891Z,19.48
2018-04-10T09:22:16.638Z,19.82
2018-04-10T09:24:46.044Z,19.87
2018-04-10T09:27:16.161Z,19.17
2018-04-10T09:29:45.657Z,19.12
2018-04-10T09:32:15.983Z,19.62
2018-04-10T09:34:45.937Z,19.98
2018-04-10T09:37:16.337Z,20.24
2018-04-10T09:39:45.402Z,20.00
2018-04-10T09:44:53.197Z,21.31
2018-04-10T09:49:58.038Z,20.85
2018-04-10T09:52:27.398Z,21.41
2018-04-10T09:54:56.469Z,22.15
2018-04-10T09:57:25.853Z,22.60
2018-04-10T09:59:54.936Z,22.91
2018-04-10T10:02:24.156Z,22.46
2018-04-10T10:04:53.595Z,22.62
2018-04-10T10:07:22.630Z,22.01
2018-04-10T10:09:51.797Z,22.84
2018-04-10T10:12:20.867Z,23.25
2018-04-10T10:14:49.961Z,23.08
2018-04-10T10:17:19.827Z,23.31
2018-04-10T10:19:48.922Z,23.85
2018-04-10T10:22:18.606Z,24.49
2018-04-10T10:24:47.672Z,24.87
2018-04-10T10:27:17.334Z,25.18
2018-04-10T10:29:46.395Z,25.55
2018-04-10T10:32:16.483Z,25.95
2018-04-10T10:34:45.541Z,25.91
2018-04-10T10:37:15.069Z,26.55
2018-04-10T10:39:47.564Z,26.74
2018-04-10T10:42:16.600Z,27.12
2018-04-10T10:44:46.534Z,27.33
2018-04-10T10:47:16.944Z,27.33
2018-04-10T10:49:47.010Z,27.31
2018-04-10T10:52:16.609Z,27.14
2018-04-10T10:54:46.742Z,28.07
2018-04-10T10:57:16.701Z,28.17
2018-04-10T11:02:22.209Z,26.85
2018-04-10T11:04:51.355Z,27.50
2018-04-10T11:07:20.541Z,25.94
2018-04-10T11:09:51.253Z,26.75
2018-04-10T11:12:20.537Z,28.36
2018-04-10T11:14:50.646Z,27.64
2018-04-10T11:17:20.058Z,27.81
2018-04-10T11:19:49.097Z,27.85
2018-04-10T11:22:18.388Z,27.90
2018-04-10T11:24:47.450Z,28.00
2018-04-10T11:27:16.519Z,28.39
2018-04-10T11:29:47.214Z,29.18
2018-04-10T11:32:18.030Z,29.90
2018-04-10T11:34:47.788Z,30.38
2018-04-10T11:37:17.106Z,30.54
2018-04-10T11:39:47.193Z,30.72
2018-04-10T11:42:16.241Z,30.64
2018-04-10T11:44:46.676Z,31.15
2018-04-10T11:47:15.702Z,31.62
2018-04-10T11:49:45.992Z,31.66
2018-04-10T11:52:15.070Z,31.04
2018-04-10T11:54:46.161Z,29.28
2018-04-10T11:57:15.223Z,30.30
2018-04-10T12:02:20.610Z,32.13
2018-04-10T12:07:25.514Z,32.78
2018-04-10T12:09:54.576Z,33.11
2018-04-10T12:12:23.627Z,33.39
2018-04-10T12:14:52.686Z,33.83
2018-04-10T12:17:22.133Z,34.04
2018-04-10T12:19:51.192Z,34.45
2018-04-10T12:22:20.739Z,34.03
2018-04-10T12:24:51.200Z,34.19
2018-04-10T12:27:20.249Z,34.17
2018-04-10T12:32:25.583Z,36.18
2018-04-10T12:34:56.319Z,34.79
2018-04-10T12:37:25.425Z,36.06
2018-04-10T12:39:55.532Z,37.54
2018-04-10T12:42:24.590Z,38.71
2018-04-10T12:44:53.653Z,39.45
2018-04-10T12:49:59.004Z,38.59
2018-04-10T12:52:28.068Z,37.58
2018-04-10T12:54:57.146Z,36.68
2018-04-10T12:57:26.197Z,36.40
2018-04-10T12:59:55.253Z,35.64
2018-04-10T13:05:00.929Z,36.94
2018-04-10T13:07:29.999Z,37.20
2018-04-10T13:09:59.389Z,34.53
2018-04-10T13:12:29.679Z,33.97
2018-04-10T13:14:59.146Z,33.42
2018-04-10T13:20:04.272Z,32.02
2018-04-10T13:22:33.305Z,33.12
2018-04-10T13:25:02.385Z,32.71
2018-04-10T13:27:31.909Z,32.39
2018-04-10T13:30:00.977Z,32.57
2018-04-10T13:32:30.467Z,31.56
2018-04-10T13:34:59.481Z,32.98
2018-04-10T13:37:28.544Z,33.84
2018-04-10T13:39:58.015Z,32.76
2018-04-10T13:42:27.086Z,32.42
2018-04-10T13:44:56.141Z,31.76
2018-04-10T13:47:25.209Z,31.02
2018-04-10T13:49:54.677Z,30.43
2018-04-10T13:52:23.737Z,29.56
2018-04-10T13:54:57.593Z,28.26
2018-04-10T13:57:30.749Z,28.01
2018-04-10T14:00:03.439Z,28.47
2018-04-10T14:02:36.714Z,28.39
2018-04-10T14:05:09.646Z,28.26
2018-04-10T14:07:43.241Z,28.39
2018-04-10T14:10:16.831Z,28.34
2018-04-10T14:15:31.316Z,28.15
2018-04-10T14:18:03.946Z,27.90
2018-04-10T14:20:41.990Z,27.86
2018-04-10T14:23:14.138Z,28.34
2018-04-10T14:25:48.289Z,29.15
2018-04-10T14:28:17.325Z,28.89
2018-04-10T14:30:47.963Z,28.84
2018-04-10T14:33:17.307Z,29.00
2018-04-10T14:35:47.377Z,28.99
2018-04-10T14:38:16.418Z,28.63
2018-04-10T14:40:46.829Z,27.94
2018-04-10T14:43:15.893Z,29.26
2018-04-10T14:45:46.045Z,29.68
2018-04-10T14:48:15.700Z,29.57
2018-04-10T14:50:46.125Z,29.13
2018-04-10T14:53:15.198Z,29.35
2018-04-10T14:55:44.502Z,29.36
2018-04-10T14:58:13.543Z,29.43
2018-04-10T15:03:18.565Z,28.91
2018-04-10T15:05:47.636Z,29.07
2018-04-10T15:08:17.317Z,28.35
2018-04-10T15:13:22.202Z,28.72
2018-04-10T15:15:51.263Z,28.14
2018-04-10T15:18:21.497Z,27.24
2018-04-10T15:20:50.583Z,26.93
2018-04-10T15:23:19.649Z,26.85
2018-04-10T15:25:48.714Z,26.96
2018-04-10T15:28:17.954Z,27.24
2018-04-10T15:30:47.354Z,26.28
2018-04-10T15:33:16.414Z,27.26
2018-04-10T15:35:47.302Z,26.73
2018-04-10T15:38:17.254Z,27.56
2018-04-10T15:40:46.786Z,28.22
2018-04-10T15:43:15.866Z,29.01
2018-04-10T15:45:45.801Z,29.65
2018-04-10T15:48:15.320Z,27.94
2018-04-10T15:50:45.330Z,27.47
2018-04-10T15:53:14.793Z,25.89
2018-04-10T15:55:44.789Z,26.32
2018-04-10T15:58:13.849Z,25.01
2018-04-10T16:00:45.054Z,25.25
2018-04-10T16:03:14.082Z,25.76
2018-04-10T16:08:38.941Z,24.72
2018-04-10T16:11:08.424Z,24.71
2018-04-10T16:13:37.481Z,24.22
2018-04-10T16:16:06.521Z,23.99
2018-04-10T16:18:36.707Z,23.85
2018-04-10T16:21:05.747Z,23.45
2018-04-10T16:23:35.183Z,23.22
2018-04-10T16:26:04.217Z,22.65
2018-04-10T16:28:33.272Z,22.45
2018-04-10T16:31:02.320Z,22.28
2018-04-10T16:33:31.381Z,22.02
2018-04-10T16:36:00.442Z,21.48
2018-04-10T16:38:29.846Z,21.36
2018-04-10T16:43:35.390Z,20.98
2018-04-10T16:46:04.473Z,20.57
2018-04-10T16:48:33.837Z,20.05
2018-04-10T16:51:02.889Z,19.86
2018-04-10T16:56:07.668Z,19.72
2018-04-10T16:58:36.721Z,19.80
2018-04-10T17:01:06.699Z,19.63
2018-04-10T17:03:35.758Z,19.50
2018-04-10T17:08:40.541Z,19.48
2018-04-10T17:11:09.657Z,19.25
2018-04-10T17:13:38.719Z,19.15
2018-04-10T17:16:07.802Z,19.02
2018-04-10T17:18:37.131Z,19.12
2018-04-10T17:21:06.177Z,18.96
2018-04-10T17:23:35.230Z,18.75
2018-04-10T17:26:04.285Z,18.63
2018-04-10T17:28:33.946Z,18.51
2018-04-10T17:31:03.263Z,18.41
2018-04-10T17:36:09.110Z,18.44
2018-04-10T17:38:38.146Z,18.28
2018-04-10T17:41:07.251Z,18.13
2018-04-10T17:43:36.298Z,17.91
2018-04-10T17:46:05.350Z,17.55
2018-04-10T17:48:34.857Z,17.45
2018-04-10T17:51:03.982Z,17.10
2018-04-10T17:53:34.618Z,16.98
2018-04-10T17:56:05.492Z,16.83
2018-04-10T17:58:39.494Z,16.87
2018-04-10T18:01:12.547Z,16.85
2018-04-10T18:03:45.116Z,16.78
2018-04-10T18:06:16.433Z,16.69
2018-04-10T18:08:45.907Z,16.58
2018-04-10T18:11:19.558Z,16.34
2018-04-10T18:13:50.023Z,16.42
2018-04-10T18:16:22.860Z,16.35
2018-04-10T18:18:56.503Z,16.43
2018-04-10T18:21:30.027Z,16.36
2018-04-10T18:24:04.417Z,16.34
2018-04-10T18:26:41.997Z,16.13
2018-04-10T18:29:15.781Z,15.86
2018-04-10T18:31:49.447Z,15.84
2018-04-10T18:34:19.368Z,15.80
2018-04-10T18:36:52.277Z,15.79
2018-04-10T18:39:26.056Z,15.74
2018-04-10T18:42:01.145Z,15.55
2018-04-10T18:44:36.549Z,15.37
2018-04-10T18:52:20.213Z,14.88
2018-04-10T18:54:54.761Z,14.69
2018-04-10T18:57:27.907Z,14.49
2018-04-10T19:00:01.698Z,14.31
2018-04-10T19:02:35.855Z,14.16
2018-04-10T19:10:31.859Z,14.03
2018-04-10T19:13:06.891Z,14.00
2018-04-10T19:15:36.510Z,13.91
2018-04-10T19:18:05.617Z,13.72
2018-04-10T19:20:34.611Z,13.73
2018-04-10T19:23:03.674Z,13.67
2018-04-10T19:25:32.744Z,13.60
2018-04-10T19:28:01.804Z,13.52
2018-04-10T19:30:30.865Z,13.49
2018-04-10T19:33:00.041Z,13.31
2018-04-10T19:35:29.183Z,13.15
2018-04-10T19:37:58.248Z,13.10
2018-04-10T19:40:30.752Z,13.18
2018-04-10T19:42:59.854Z,13.19
2018-04-10T19:45:28.935Z,13.21
2018-04-10T19:47:58.001Z,13.25
2018-04-10T19:55:40.045Z,13.50
2018-04-10T20:00:44.804Z,13.44
2018-04-10T20:03:15.005Z,13.46
2018-04-10T20:05:44.060Z,13.35
2018-04-10T20:08:14.028Z,13.32
2018-04-10T20:10:43.094Z,13.32
2018-04-10T20:13:12.162Z,13.06
2018-04-10T20:15:41.249Z,12.97
2018-04-10T20:18:10.310Z,12.90
2018-04-10T20:23:18.912Z,12.98
2018-04-10T20:25:50.499Z,12.87
2018-04-10T20:28:20.038Z,12.74
2018-04-10T20:30:50.105Z,12.52
2018-04-10T20:33:21.885Z,12.45
2018-04-10T20:35:52.500Z,12.38
2018-04-10T20:38:22.289Z,12.39
2018-04-10T20:40:52.322Z,12.37
2018-04-10T20:43:27.063Z,12.40
2018-04-10T20:45:56.301Z,12.41
2018-04-10T20:48:25.624Z,12.49
2018-04-10T20:50:54.729Z,12.43
2018-04-10T20:56:00.278Z,12.47
2018-04-10T20:58:29.919Z,12.45
2018-04-10T21:01:00.125Z,12.35
2018-04-10T21:03:29.564Z,12.33
2018-04-10T21:05:59.033Z,12.40
2018-04-10T21:08:28.386Z,12.36
2018-04-10T21:10:58.661Z,12.34
2018-04-10T21:13:27.982Z,12.50
2018-04-10T21:15:57.596Z,12.27
2018-04-10T21:21:03.474Z,11.91
2018-04-10T21:23:32.769Z,11.80
2018-04-10T21:26:02.086Z,11.87
2018-04-10T21:28:31.169Z,11.77
2018-04-10T21:31:00.259Z,11.85
2018-04-10T21:33:29.406Z,11.81
2018-04-10T21:35:58.546Z,11.76
2018-04-10T21:38:29.580Z,11.67
2018-04-10T21:43:34.606Z,11.77
2018-04-10T21:46:04.619Z,11.72
2018-04-10T21:48:34.823Z,11.72
2018-04-10T21:51:04.084Z,11.69
2018-04-10T21:53:33.294Z,11.81
2018-04-10T21:56:02.517Z,11.86
2018-04-10T21:58:32.392Z,11.90
2018-04-10T22:01:01.449Z,11.81
2018-04-10T22:03:30.538Z,11.79
2018-04-10T22:06:00.812Z,11.80
2018-04-10T22:08:29.849Z,11.84
2018-04-10T22:10:58.905Z,11.94
2018-04-10T22:13:28.021Z,11.97
2018-04-10T22:15:57.093Z,11.95
2018-04-10T22:18:26.141Z,12.01
2018-04-10T22:20:55.210Z,12.07
2018-04-10T22:23:25.359Z,12.12
2018-04-10T22:25:54.476Z,12.24
2018-04-10T22:30:59.446Z,12.40
2018-04-10T22:33:29.477Z,12.46
2018-04-10T22:35:58.467Z,12.34
2018-04-10T22:38:27.526Z,12.19
2018-04-10T22:40:57.682Z,12.19
2018-04-10T22:43:26.750Z,12.24
2018-04-10T22:45:55.811Z,12.12
2018-04-10T22:48:24.884Z,12.12
2018-04-10T22:50:54.129Z,12.10
2018-04-10T22:53:24.158Z,11.92
2018-04-10T22:55:53.225Z,11.69
2018-04-10T22:58:23.283Z,11.65
2018-04-10T23:00:52.466Z,11.60
2018-04-10T23:03:21.522Z,11.46
2018-04-10T23:05:50.585Z,11.49
2018-04-10T23:08:20.655Z,11.61
2018-04-10T23:10:49.921Z,11.35
2018-04-10T23:13:18.953Z,11.24
2018-04-10T23:15:48.932Z,11.15
2018-04-10T23:18:18.232Z,11.08
2018-04-10T23:20:48.197Z,11.08
2018-04-10T23:23:18.238Z,10.93
2018-04-10T23:25:59.071Z,10.77
2018-04-10T23:28:28.103Z,10.82
2018-04-10T23:30:57.274Z,10.86
2018-04-10T23:36:01.591Z,11.09
2018-04-10T23:38:30.645Z,11.06
2018-04-10T23:40:59.770Z,11.05
2018-04-10T23:43:28.857Z,11.11
2018-04-10T23:45:58.817Z,11.10
2018-04-10T23:48:27.875Z,10.99
2018-04-10T23:50:56.926Z,10.88
2018-04-10T23:53:25.983Z,10.98
2018-04-10T23:55:55.081Z,11.01
2018-04-10T23:58:24.160Z,11.00
